Time;durP1;ratioP1;P1;durP2;ratioP2;P2;SDS_P1;SDS_P2;PMS_P1;PMS_P2;Temp;Humidity;BMP_temperature;BMP_pressure;BME280_temperature;BME280_humidity;BME280_pressure;Samples;Min_cycle;Max_cycle;Signal;HPM_P1;HPM_P2
2022/08/04 00:00:43;;;;;;;7.05;3.72;;;;;;;;;;5052283;28;20033;-73
2022/08/04 00:03:15;;;;;;;7.68;3.33;;;;;;;;;;5052130;28;20480;-73
2022/08/04 00:05:53;;;;;;;11.77;3.58;;;;;;;;;;5051618;28;20482;-73
2022/08/04 00:08:38;;;;;;;5.07;3.45;;;;;;;;;;5052489;28;20032;-73
2022/08/04 00:11:07;;;;;;;8.00;3.80;;;;;;;;;;5052149;28;20044;-72
2022/08/04 00:13:38;;;;;;;6.07;3.35;;;;;;;;;;5051329;28;20041;-73
2022/08/04 00:16:09;;;;;;;6.72;3.80;;;;;;;;;;5052045;28;20033;-73
2022/08/04 00:18:41;;;;;;;6.65;3.70;;;;;;;;;;5052115;28;20120;-75
2022/08/04 00:21:11;;;;;;;7.38;3.65;;;;;;;;;;5052204;28;20052;-73
2022/08/04 00:23:38;;;;;;;5.57;3.58;;;;;;;;;;5052163;28;20079;-72
2022/08/04 00:26:04;;;;;;;7.28;3.75;;;;;;;;;;5048455;28;20040;-71
2022/08/04 00:28:30;;;;;;;9.23;3.75;;;;;;;;;;5048912;28;20036;-73
2022/08/04 00:30:56;;;;;;;9.45;3.72;;;;;;;;;;5051739;28;20033;-72
2022/08/04 00:33:22;;;;;;;8.25;3.85;;;;;;;;;;5049950;28;20055;-72
2022/08/04 00:35:49;;;;;;;5.05;3.60;;;;;;;;;;5052407;28;20043;-72
2022/08/04 00:38:16;;;;;;;6.15;3.67;;;;;;;;;;5050765;28;20113;-73
2022/08/04 00:41:07;;;;;;;4.05;3.33;;;;;;;;;;5051967;28;20182;-74
2022/08/04 00:43:45;;;;;;;7.53;3.42;;;;;;;;;;5052323;28;20065;-73
2022/08/04 00:46:29;;;;;;;4.82;3.50;;;;;;;;;;5052196;28;20480;-73
2022/08/04 00:49:01;;;;;;;7.15;3.38;;;;;;;;;;5052063;28;20476;-72
2022/08/04 00:51:30;;;;;;;4.78;3.00;;;;;;;;;;5052043;28;20029;-73
2022/08/04 00:54:12;;;;;;;6.05;3.40;;;;;;;;;;5051976;28;20029;-73
2022/08/04 00:56:56;;;;;;;7.82;3.20;;;;;;;;;;5052119;28;20577;-73
2022/08/04 00:59:25;;;;;;;6.35;3.13;;;;;;;;;;5052138;28;20029;-74
2022/08/04 01:02:10;;;;;;;4.90;3.53;;;;;;;;;;5051840;28;20068;-73
2022/08/04 01:05:00;;;;;;;9.15;3.20;;;;;;;;;;5051757;28;20112;-73
2022/08/04 01:08:01;;;;;;;4.18;3.25;;;;;;;;;;5052109;28;20484;-72
2022/08/04 01:10:39;;;;;;;3.78;3.13;;;;;;;;;;4974454;28;20045;-73
2022/08/04 01:13:12;;;;;;;4.60;3.30;;;;;;;;;;5044204;28;20037;-72
2022/08/04 01:15:59;;;;;;;6.65;3.58;;;;;;;;;;5051649;28;20033;-73
2022/08/04 01:18:33;;;;;;;5.43;3.22;;;;;;;;;;5051600;28;20029;-73
2022/08/04 01:21:28;;;;;;;9.20;3.33;;;;;;;;;;5051648;28;20083;-73
2022/08/04 01:24:03;;;;;;;7.20;3.70;;;;;;;;;;5051560;28;20025;-72
2022/08/04 01:26:44;;;;;;;5.00;3.30;;;;;;;;;;5051843;28;20369;-72
2022/08/04 01:29:14;;;;;;;6.20;3.67;;;;;;;;;;5051145;28;20091;-72
2022/08/04 01:32:00;;;;;;;5.65;3.92;;;;;;;;;;5051707;28;20029;-73
2022/08/04 01:34:30;;;;;;;9.00;4.15;;;;;;;;;;5051838;28;20072;-73
2022/08/04 01:37:21;;;;;;;9.98;3.97;;;;;;;;;;5051840;28;20507;-72
2022/08/04 01:40:00;;;;;;;7.60;3.70;;;;;;;;;;5051893;28;20029;-73
2022/08/04 01:42:29;;;;;;;7.57;3.80;;;;;;;;;;5051520;28;20037;-73
2022/08/04 01:44:59;;;;;;;10.75;4.15;;;;;;;;;;5051576;28;20499;-73
2022/08/04 01:47:28;;;;;;;6.82;3.03;;;;;;;;;;5051725;28;20035;-73
2022/08/04 01:49:57;;;;;;;8.25;3.55;;;;;;;;;;5051609;28;20033;-72
2022/08/04 01:52:26;;;;;;;7.53;3.28;;;;;;;;;;5033588;28;20045;-73
2022/08/04 01:54:52;;;;;;;10.75;4.18;;;;;;;;;;5044793;28;20096;-73
2022/08/04 01:57:19;;;;;;;4.75;3.05;;;;;;;;;;5038938;28;20087;-73
2022/08/04 01:59:47;;;;;;;10.98;3.40;;;;;;;;;;5041534;28;20053;-73
2022/08/04 02:02:13;;;;;;;7.75;3.50;;;;;;;;;;5051471;28;20033;-73
2022/08/04 02:04:40;;;;;;;6.03;3.17;;;;;;;;;;5051392;28;20033;-73
2022/08/04 02:07:35;;;;;;;8.63;3.20;;;;;;;;;;5050730;28;20057;-73
2022/08/04 02:10:29;;;;;;;5.13;2.83;;;;;;;;;;5046259;28;20407;-71
2022/08/04 02:13:14;;;;;;;5.38;2.90;;;;;;;;;;5031583;28;20049;-73
2022/08/04 02:16:17;;;;;;;8.07;2.95;;;;;;;;;;5052253;28;20037;-74
2022/08/04 02:19:01;;;;;;;12.73;3.10;;;;;;;;;;5052475;28;20108;-73
2022/08/04 02:21:29;;;;;;;6.43;2.70;;;;;;;;;;5052298;28;20063;-73
2022/08/04 02:24:06;;;;;;;5.22;2.70;;;;;;;;;;5052092;28;20033;-73
2022/08/04 02:26:34;;;;;;;8.13;3.00;;;;;;;;;;5052254;28;20029;-73
2022/08/04 02:29:09;;;;;;;8.32;2.95;;;;;;;;;;5052589;28;20098;-73
2022/08/04 02:31:48;;;;;;;7.68;3.17;;;;;;;;;;5055647;28;20108;-73
2022/08/04 02:34:41;;;;;;;22.13;2.80;;;;;;;;;;5055330;28;20044;-73
2022/08/04 02:37:10;;;;;;;5.07;2.70;;;;;;;;;;5055624;28;20154;-73
2022/08/04 02:39:36;;;;;;;5.50;2.80;;;;;;;;;;5049205;28;20039;-73
2022/08/04 02:42:04;;;;;;;4.80;2.50;;;;;;;;;;5043719;28;20033;-74
2022/08/04 02:44:31;;;;;;;5.57;3.10;;;;;;;;;;5041193;28;20033;-73
2022/08/04 02:46:59;;;;;;;4.57;2.70;;;;;;;;;;5035579;28;20037;-73
2022/08/04 02:49:26;;;;;;;5.95;2.85;;;;;;;;;;5035408;28;20038;-73
2022/08/04 02:51:53;;;;;;;8.20;3.53;;;;;;;;;;5017798;28;20038;-73
2022/08/04 02:54:27;;;;;;;7.90;3.00;;;;;;;;;;5035481;28;20029;-74
2022/08/04 02:56:56;;;;;;;6.57;2.90;;;;;;;;;;5035432;28;20038;-73
2022/08/04 02:59:26;;;;;;;7.20;2.95;;;;;;;;;;5035257;28;20057;-74
2022/08/04 03:01:56;;;;;;;6.30;2.97;;;;;;;;;;5035297;28;20112;-74
2022/08/04 03:04:27;;;;;;;6.00;2.90;;;;;;;;;;5035256;28;20029;-74
2022/08/04 03:07:15;;;;;;;5.35;3.20;;;;;;;;;;5035028;28;20045;-75
2022/08/04 03:09:53;;;;;;;3.90;2.70;;;;;;;;;;5034781;28;20037;-73
2022/08/04 03:12:31;;;;;;;8.57;2.72;;;;;;;;;;5035159;28;20041;-73
2022/08/04 03:15:05;;;;;;;8.10;3.20;;;;;;;;;;5035064;28;20192;-73
2022/08/04 03:17:37;;;;;;;6.53;3.30;;;;;;;;;;5052578;28;20059;-73
2022/08/04 03:20:36;;;;;;;4.55;3.47;;;;;;;;;;5041419;28;20385;-73
2022/08/04 03:23:38;;;;;;;6.47;3.33;;;;;;;;;;5044640;28;20547;-73
2022/08/04 03:26:41;;;;;;;5.53;3.20;;;;;;;;;;5016698;28;20126;-72
2022/08/04 03:29:36;;;;;;;10.35;3.45;;;;;;;;;;5016673;28;20088;-73
2022/08/04 03:32:20;;;;;;;5.35;2.90;;;;;;;;;;5034614;28;20112;-73
2022/08/04 03:35:12;;;;;;;6.07;3.30;;;;;;;;;;5034557;28;20071;-73
2022/08/04 03:38:21;;;;;;;14.30;3.53;;;;;;;;;;5034764;28;20038;-73
2022/08/04 03:41:36;;;;;;;7.45;3.50;;;;;;;;;;5021597;28;20049;-73
2022/08/04 03:44:08;;;;;;;5.80;3.35;;;;;;;;;;5033751;28;20038;-73
2022/08/04 03:46:39;;;;;;;9.40;3.72;;;;;;;;;;5034301;28;20033;-73
2022/08/04 03:49:27;;;;;;;8.50;3.55;;;;;;;;;;5034231;28;20112;-73
2022/08/04 03:55:35;;;;;;;9.38;3.88;;;;;;;;;;5034394;28;20029;-74
2022/08/04 03:58:39;;;;;;;12.70;4.45;;;;;;;;;;5033918;28;20037;-73
2022/08/04 04:01:50;;;;;;;6.63;3.40;;;;;;;;;;5033310;28;20073;-74
2022/08/04 04:04:40;;;;;;;10.43;4.53;;;;;;;;;;5017352;28;20489;-74
2022/08/04 04:07:33;;;;;;;16.60;3.95;;;;;;;;;;5034019;28;20092;-73
2022/08/04 04:10:37;;;;;;;17.17;4.88;;;;;;;;;;5033919;28;20128;-73
2022/08/04 04:13:14;;;;;;;19.88;4.70;;;;;;;;;;5033826;28;20079;-73
2022/08/04 04:15:59;;;;;;;14.80;3.80;;;;;;;;;;5036986;28;20040;-73
2022/08/04 04:19:01;;;;;;;14.93;3.40;;;;;;;;;;5046333;28;20066;-73
2022/08/04 04:21:45;;;;;;;14.05;3.78;;;;;;;;;;5033226;28;20044;-73
2022/08/04 04:24:14;;;;;;;11.15;3.58;;;;;;;;;;5038725;28;20102;-74
2022/08/04 04:27:15;;;;;;;12.27;3.92;;;;;;;;;;5050342;28;20104;-73
2022/08/04 04:30:00;;;;;;;7.82;3.22;;;;;;;;;;5051585;28;20108;-71
2022/08/04 04:32:32;;;;;;;8.75;3.72;;;;;;;;;;5051414;28;20057;-74
2022/08/04 04:35:38;;;;;;;11.70;3.92;;;;;;;;;;5052973;28;20419;-74
2022/08/04 04:38:20;;;;;;;19.38;4.22;;;;;;;;;;5042431;28;20141;-74
2022/08/04 04:41:04;;;;;;;23.77;5.10;;;;;;;;;;5050272;28;20896;-73
2022/08/04 04:43:58;;;;;;;6.85;3.60;;;;;;;;;;5052819;28;20337;-74
2022/08/04 04:46:55;;;;;;;12.15;3.80;;;;;;;;;;5052791;28;20158;-76
2022/08/04 04:49:32;;;;;;;10.57;3.83;;;;;;;;;;5052135;28;20044;-75
2022/08/04 04:52:26;;;;;;;7.78;3.60;;;;;;;;;;5051922;28;20039;-75
2022/08/04 04:55:09;;;;;;;11.45;3.83;;;;;;;;;;5051910;28;20040;-75
2022/08/04 04:57:37;;;;;;;8.13;3.35;;;;;;;;;;5052420;28;20031;-76
2022/08/04 05:00:08;;;;;;;18.40;4.93;;;;;;;;;;5052592;28;20059;-75
2022/08/04 05:02:51;;;;;;;10.95;4.53;;;;;;;;;;5051067;28;20044;-76
2022/08/04 05:05:29;;;;;;;12.35;4.03;;;;;;;;;;5032263;28;20389;-77
2022/08/04 05:08:19;;;;;;;14.38;3.75;;;;;;;;;;5032441;28;20033;-76
2022/08/04 05:11:12;;;;;;;15.05;4.00;;;;;;;;;;5032383;28;20117;-76
2022/08/04 05:13:45;;;;;;;19.83;5.07;;;;;;;;;;5037622;28;20033;-75
2022/08/04 05:16:20;;;;;;;18.70;4.75;;;;;;;;;;5052143;28;20061;-75
2022/08/04 05:18:56;;;;;;;9.27;3.63;;;;;;;;;;5051990;28;20087;-73
2022/08/04 05:21:41;;;;;;;6.43;3.58;;;;;;;;;;5051870;28;20040;-78
2022/08/04 05:24:10;;;;;;;11.85;4.28;;;;;;;;;;5052375;28;20037;-78
2022/08/04 05:26:43;;;;;;;10.13;3.90;;;;;;;;;;5051779;28;20573;-77
2022/08/04 05:29:17;;;;;;;9.05;3.85;;;;;;;;;;5052000;28;20028;-77
2022/08/04 05:31:49;;;;;;;11.52;4.35;;;;;;;;;;5032202;28;20026;-76
2022/08/04 05:34:25;;;;;;;;;;;;;;;;;;5032358;28;20041;-76
2022/08/04 05:36:54;;;;;;;10.10;3.97;;;;;;;;;;5032265;28;19917;-78
2022/08/04 05:39:24;;;;;;;6.10;3.50;;;;;;;;;;5039831;28;20028;-74
2022/08/04 05:41:50;;;;;;;11.13;4.00;;;;;;;;;;5051872;28;20057;-74
2022/08/04 05:44:18;;;;;;;8.38;3.92;;;;;;;;;;5052179;28;20041;-72
2022/08/04 05:46:50;;;;;;;5.30;3.40;;;;;;;;;;5052191;28;20472;-76
2022/08/04 05:49:18;;;;;;;9.13;3.30;;;;;;;;;;5051528;28;20040;-72
2022/08/04 05:51:45;;;;;;;7.20;3.40;;;;;;;;;;5050779;28;20548;-76
2022/08/04 05:54:12;;;;;;;9.27;3.28;;;;;;;;;;5051499;28;20562;-78
2022/08/04 05:56:39;;;;;;;8.32;3.67;;;;;;;;;;5051624;28;20079;-74
2022/08/04 05:59:07;;;;;;;8.70;3.28;;;;;;;;;;5051558;28;20426;-75
2022/08/04 06:01:35;;;;;;;7.78;3.10;;;;;;;;;;5051217;28;20119;-76
2022/08/04 06:04:02;;;;;;;16.70;4.07;;;;;;;;;;5051613;28;20033;-78
2022/08/04 06:06:30;;;;;;;10.80;3.38;;;;;;;;;;5055391;28;20037;-77
2022/08/04 06:08:56;;;;;;;6.30;2.97;;;;;;;;;;5055233;28;20147;-76
2022/08/04 06:11:26;;;;;;;8.13;3.00;;;;;;;;;;5055360;28;20044;-78
2022/08/04 06:14:02;;;;;;;11.00;3.10;;;;;;;;;;5055116;28;20036;-76
2022/08/04 06:16:36;;;;;;;7.50;2.90;;;;;;;;;;5055050;28;20037;-78
2022/08/04 06:19:13;;;;;;;7.90;2.97;;;;;;;;;;5055368;28;20112;-78
2022/08/04 06:21:42;;;;;;;11.15;3.50;;;;;;;;;;5055859;28;20051;-83
2022/08/04 06:24:13;;;;;;;8.68;3.58;;;;;;;;;;5056265;28;20037;-76
2022/08/04 06:26:40;;;;;;;8.75;3.25;;;;;;;;;;5056534;28;20040;-72
2022/08/04 06:29:16;;;;;;;5.18;3.03;;;;;;;;;;5055919;28;20108;-78
2022/08/04 06:31:46;;;;;;;8.48;3.47;;;;;;;;;;5040333;28;20045;-77
2022/08/04 06:34:15;;;;;;;6.50;3.58;;;;;;;;;;5055584;28;20052;-77
2022/08/04 06:36:42;;;;;;;13.60;4.32;;;;;;;;;;5055935;28;20076;-81
2022/08/04 06:39:10;;;;;;;12.07;3.40;;;;;;;;;;5055557;28;20399;-79
2022/08/04 06:41:37;;;;;;;7.45;3.40;;;;;;;;;;5055439;28;20029;-81
2022/08/04 06:44:06;;;;;;;8.88;3.30;;;;;;;;;;5054721;28;20033;-79
2022/08/04 06:46:35;;;;;;;8.68;3.40;;;;;;;;;;5054654;28;20483;-80
2022/08/04 06:49:03;;;;;;;10.85;3.90;;;;;;;;;;5054902;28;20029;-77
2022/08/04 06:51:31;;;;;;;9.95;3.50;;;;;;;;;;5055856;28;20488;-80
2022/08/04 06:53:57;;;;;;;9.98;4.68;;;;;;;;;;5055240;28;20033;-80
2022/08/04 06:56:26;;;;;;;14.40;4.32;;;;;;;;;;5054667;28;20079;-82
2022/08/04 06:58:54;;;;;;;8.07;3.75;;;;;;;;;;5054876;28;20029;-84
2022/08/04 07:01:21;;;;;;;12.20;4.28;;;;;;;;;;5054561;28;20053;-79
2022/08/04 07:03:48;;;;;;;15.68;3.78;;;;;;;;;;5036581;28;20029;-76
2022/08/04 07:06:15;;;;;;;11.27;3.92;;;;;;;;;;5055710;28;20041;-78
2022/08/04 07:08:41;;;;;;;7.75;3.40;;;;;;;;;;5054359;28;20029;-79
2022/08/04 07:11:08;;;;;;;16.20;4.20;;;;;;;;;;5053934;28;20108;-77
2022/08/04 07:13:35;;;;;;;8.13;3.75;;;;;;;;;;5054405;28;20429;-78
2022/08/04 07:16:01;;;;;;;13.18;3.90;;;;;;;;;;5054343;28;20033;-79
2022/08/04 07:18:30;;;;;;;9.80;3.50;;;;;;;;;;5054652;28;20474;-79
2022/08/04 07:20:56;;;;;;;12.27;4.03;;;;;;;;;;5054012;28;20043;-80
2022/08/04 07:23:24;;;;;;;12.55;3.30;;;;;;;;;;5053736;28;20025;-77
2022/08/04 07:25:52;;;;;;;8.18;3.10;;;;;;;;;;5054346;28;20028;-83
2022/08/04 07:28:20;;;;;;;6.47;3.80;;;;;;;;;;5054274;28;20068;-82
2022/08/04 07:30:47;;;;;;;10.52;3.70;;;;;;;;;;5054205;28;20065;-83
2022/08/04 07:33:15;;;;;;;8.32;3.33;;;;;;;;;;5053243;28;20044;-80
2022/08/04 07:35:42;;;;;;;12.57;3.50;;;;;;;;;;5053647;28;20053;-81
2022/08/04 07:38:10;;;;;;;8.23;3.03;;;;;;;;;;5053875;28;20047;-87
2022/08/04 07:40:37;;;;;;;7.95;3.58;;;;;;;;;;5053844;28;20043;-81
2022/08/04 07:43:04;;;;;;;5.65;2.88;;;;;;;;;;5036331;28;20440;-81
2022/08/04 07:45:30;;;;;;;4.43;2.63;;;;;;;;;;5053761;28;20041;-80
2022/08/04 07:47:56;;;;;;;8.57;3.40;;;;;;;;;;5053813;28;20036;-78
2022/08/04 07:50:24;;;;;;;6.00;2.97;;;;;;;;;;5053940;28;20044;-83
2022/08/04 07:52:51;;;;;;;7.15;2.50;;;;;;;;;;5054364;28;20029;-80
2022/08/04 07:55:18;;;;;;;4.70;2.58;;;;;;;;;;5053927;28;20472;-81
2022/08/04 07:57:44;;;;;;;6.78;2.60;;;;;;;;;;5053714;28;20503;-81
2022/08/04 08:00:13;;;;;;;6.90;2.70;;;;;;;;;;5054771;28;20068;-83
2022/08/04 08:02:47;;;;;;;8.80;2.60;;;;;;;;;;5053248;28;20040;-80
2022/08/04 08:05:13;;;;;;;;;;;;;;;;;;5053460;28;20029;-81
2022/08/04 08:07:39;;;;;;;6.03;2.35;;;;;;;;;;5053080;28;20316;-80
2022/08/04 08:10:12;;;;;;;6.15;2.78;;;;;;;;;;5052830;28;20035;-84
2022/08/04 08:12:38;;;;;;;15.13;2.80;;;;;;;;;;5052623;28;20033;-83
2022/08/04 08:15:06;;;;;;;5.97;2.50;;;;;;;;;;5053445;28;20431;-83
2022/08/04 08:17:33;;;;;;;3.45;2.50;;;;;;;;;;5052936;28;20033;-82
2022/08/04 08:20:00;;;;;;;4.55;2.50;;;;;;;;;;5052957;28;20416;-78
2022/08/04 08:22:27;;;;;;;6.57;2.75;;;;;;;;;;5052860;28;20043;-82
2022/08/04 08:24:53;;;;;;;6.85;3.10;;;;;;;;;;5053438;28;20056;-79
2022/08/04 08:27:19;;;;;;;6.40;3.00;;;;;;;;;;5052969;28;20073;-82
2022/08/04 08:29:46;;;;;;;3.47;2.95;;;;;;;;;;5056347;28;20132;-85
2022/08/04 08:32:13;;;;;;;5.35;2.50;;;;;;;;;;5054946;28;20396;-81
2022/08/04 08:34:40;;;;;;;6.35;2.70;;;;;;;;;;5052025;28;20041;-77
2022/08/04 08:37:15;;;;;;;3.70;2.45;;;;;;;;;;5052151;28;20029;-77
2022/08/04 08:39:58;;;;;;;3.63;2.53;;;;;;;;;;5052854;28;20037;-81
2022/08/04 08:42:36;;;;;;;5.47;3.10;;;;;;;;;;5052809;28;20083;-79
2022/08/04 08:45:17;;;;;;;6.03;2.97;;;;;;;;;;5052412;28;20029;-80
2022/08/04 08:48:01;;;;;;;7.80;2.75;;;;;;;;;;5052731;28;20033;-78
2022/08/04 08:50:48;;;;;;;3.50;2.40;;;;;;;;;;5052358;28;20029;-85
2022/08/04 08:53:57;;;;;;;4.38;2.40;;;;;;;;;;5053223;28;20029;-83
2022/08/04 08:56:46;;;;;;;4.93;2.42;;;;;;;;;;4991618;28;20141;-81
2022/08/04 08:59:18;;;;;;;4.95;2.45;;;;;;;;;;5005016;28;20114;-82
2022/08/04 09:02:01;;;;;;;6.82;2.63;;;;;;;;;;5052005;28;20400;-82
2022/08/04 09:04:51;;;;;;;7.85;2.83;;;;;;;;;;5052100;28;20052;-81
2022/08/04 09:07:27;;;;;;;3.58;2.40;;;;;;;;;;5054055;28;20028;-82
2022/08/04 09:10:19;;;;;;;4.47;2.22;;;;;;;;;;5052040;28;20395;-85
2022/08/04 09:13:29;;;;;;;7.57;2.67;;;;;;;;;;5052092;28;20063;-80
2022/08/04 09:16:19;;;;;;;4.63;2.40;;;;;;;;;;4971173;28;20070;-82
2022/08/04 09:19:13;;;;;;;4.85;2.50;;;;;;;;;;5033924;28;20034;-80
2022/08/04 09:22:23;;;;;;;5.05;2.10;;;;;;;;;;5032215;28;20099;-78
2022/08/04 09:25:17;;;;;;;5.72;2.45;;;;;;;;;;4991086;28;20062;-76
2022/08/04 09:27:45;;;;;;;;;;;;;;;;;;5037866;28;20051;-77
2022/08/04 09:30:14;;;;;;;5.57;3.40;;;;;;;;;;5051626;28;20287;-76
2022/08/04 09:32:55;;;;;;;7.68;2.75;;;;;;;;;;5051402;28;20052;-77
2022/08/04 09:35:39;;;;;;;8.68;2.55;;;;;;;;;;5045105;28;20029;-78
2022/08/04 09:38:19;;;;;;;4.88;2.28;;;;;;;;;;5052439;28;20029;-79
2022/08/04 09:41:12;;;;;;;7.45;3.10;;;;;;;;;;5055464;28;20543;-79
2022/08/04 09:44:15;;;;;;;5.75;2.40;;;;;;;;;;5055839;28;20032;-79
2022/08/04 09:47:13;;;;;;;3.40;2.25;;;;;;;;;;5055715;28;20029;-77
2022/08/04 09:50:16;;;;;;;4.05;2.50;;;;;;;;;;5055802;28;20071;-76
2022/08/04 09:52:51;;;;;;;5.30;1.77;;;;;;;;;;5053300;28;20053;-80
2022/08/04 09:55:33;;;;;;;5.32;2.10;;;;;;;;;;5055541;28;20040;-79
2022/08/04 09:58:23;;;;;;;8.02;2.10;;;;;;;;;;5055814;28;20484;-79
2022/08/04 10:00:59;;;;;;;4.93;2.20;;;;;;;;;;5055583;28;20029;-78
2022/08/04 10:03:30;;;;;;;5.10;2.15;;;;;;;;;;5055212;28;20116;-80
2022/08/04 10:06:42;;;;;;;2.35;1.60;;;;;;;;;;5050113;28;20226;-79
2022/08/04 10:09:15;;;;;;;6.78;3.33;;;;;;;;;;5054005;28;20045;-77
2022/08/04 10:11:51;;;;;;;2.13;1.80;;;;;;;;;;5055648;28;20120;-81
2022/08/04 10:14:38;;;;;;;3.17;1.95;;;;;;;;;;5055760;28;20029;-80
2022/08/04 10:17:24;;;;;;;4.18;2.33;;;;;;;;;;5028660;28;20051;-81
2022/08/04 10:20:30;;;;;;;6.28;2.42;;;;;;;;;;5054646;28;20037;-81
2022/08/04 10:23:10;;;;;;;5.53;2.05;;;;;;;;;;5054302;28;20112;-76
2022/08/04 10:26:05;;;;;;;3.33;2.00;;;;;;;;;;5054283;28;20045;-77
2022/08/04 10:28:36;;;;;;;4.75;1.90;;;;;;;;;;5043690;28;20033;-79
2022/08/04 10:31:08;;;;;;;2.85;2.10;;;;;;;;;;5052654;28;20124;-84
2022/08/04 10:34:04;;;;;;;2.83;1.85;;;;;;;;;;5053774;28;20493;-77
2022/08/04 10:36:57;;;;;;;4.45;1.90;;;;;;;;;;5046513;28;20052;-78
2022/08/04 10:39:41;;;;;;;3.55;1.77;;;;;;;;;;5053994;28;20056;-78
2022/08/04 10:42:29;;;;;;;7.18;2.03;;;;;;;;;;5039679;28;20045;-78
2022/08/04 10:45:18;;;;;;;4.43;1.90;;;;;;;;;;5048741;28;20025;-78
2022/08/04 10:48:00;;;;;;;3.38;2.38;;;;;;;;;;5055238;28;20365;-82
2022/08/04 10:50:28;;;;;;;2.92;1.65;;;;;;;;;;5053236;28;20048;-85
2022/08/04 10:53:04;;;;;;;3.58;2.30;;;;;;;;;;5052637;28;20036;-78
2022/08/04 10:55:40;;;;;;;2.53;1.88;;;;;;;;;;5053219;28;20021;-77
2022/08/04 10:58:12;;;;;;;6.55;2.15;;;;;;;;;;5052858;28;20036;-77
2022/08/04 11:00:42;;;;;;;3.47;1.83;;;;;;;;;;5053225;28;20024;-78
2022/08/04 11:03:37;;;;;;;5.60;1.83;;;;;;;;;;5053915;28;20032;-76
2022/08/04 11:06:04;;;;;;;4.15;1.90;;;;;;;;;;5031990;28;20516;-79
2022/08/04 11:08:35;;;;;;;4.28;1.90;;;;;;;;;;5033999;28;20116;-76
2022/08/04 11:11:12;;;;;;;6.40;1.80;;;;;;;;;;5034386;28;20115;-76
2022/08/04 11:13:45;;;;;;;5.75;1.92;;;;;;;;;;5034593;28;20380;-79
2022/08/04 11:16:23;;;;;;;;;;;;;;;;;;5042996;28;20527;-77
2022/08/04 11:18:55;;;;;;;4.22;1.98;;;;;;;;;;5052149;28;19923;-76
2022/08/04 11:21:27;;;;;;;8.20;4.68;;;;;;;;;;5053255;28;20028;-77
2022/08/04 11:24:11;;;;;;;5.45;1.83;;;;;;;;;;5034035;28;20034;-79
2022/08/04 11:26:50;;;;;;;5.20;3.25;;;;;;;;;;5034517;28;20038;-77
2022/08/04 11:29:19;;;;;;;2.80;2.03;;;;;;;;;;5038939;28;20119;-79
2022/08/04 11:31:48;;;;;;;3.50;1.85;;;;;;;;;;5054951;28;20052;-76
2022/08/04 11:34:20;;;;;;;2.67;1.70;;;;;;;;;;5052676;28;20045;-77
2022/08/04 11:37:13;;;;;;;3.28;1.73;;;;;;;;;;5054189;28;20036;-76
2022/08/04 11:39:44;;;;;;;;;;;;;;;;;;5054510;28;20037;-75
2022/08/04 11:42:27;;;;;;;8.13;1.92;;;;;;;;;;5052818;28;20265;-75
2022/08/04 11:45:03;;;;;;;5.03;2.28;;;;;;;;;;5053595;28;20041;-79
2022/08/04 11:47:37;;;;;;;2.45;1.75;;;;;;;;;;5053551;28;20036;-77
2022/08/04 11:50:19;;;;;;;3.45;1.95;;;;;;;;;;5040625;28;20038;-76
2022/08/04 11:52:46;;;;;;;3.15;1.90;;;;;;;;;;5044430;28;20060;-76
2022/08/04 11:55:20;;;;;;;3.75;2.00;;;;;;;;;;5039731;28;20040;-75
2022/08/04 11:57:46;;;;;;;2.05;1.63;;;;;;;;;;5033156;28;20128;-78
2022/08/04 12:00:16;;;;;;;2.92;1.90;;;;;;;;;;5040429;28;20078;-74
2022/08/04 12:02:51;;;;;;;3.78;2.00;;;;;;;;;;5051952;28;20029;-74
2022/08/04 12:05:26;;;;;;;2.72;1.80;;;;;;;;;;5052875;28;20033;-75
2022/08/04 12:08:11;;;;;;;3.58;1.75;;;;;;;;;;5046565;28;20116;-78
2022/08/04 12:10:41;;;;;;;3.22;1.80;;;;;;;;;;5037291;28;20401;-73
2022/08/04 12:13:42;;;;;;;4.97;1.80;;;;;;;;;;5044505;28;20037;-76
2022/08/04 12:16:24;;;;;;;7.05;5.18;;;;;;;;;;5032947;28;20034;-76
2022/08/04 12:19:07;;;;;;;4.57;2.77;;;;;;;;;;5015575;28;20076;-75
2022/08/04 12:21:34;;;;;;;2.80;2.05;;;;;;;;;;5037270;28;20030;-81
2022/08/04 12:24:04;;;;;;;2.50;1.77;;;;;;;;;;5046407;28;20090;-80
2022/08/04 12:26:44;;;;;;;3.08;1.85;;;;;;;;;;5039940;28;20068;-75
2022/08/04 12:29:15;;;;;;;3.08;1.63;;;;;;;;;;5032449;28;20029;-76
2022/08/04 12:31:47;;;;;;;2.47;1.98;;;;;;;;;;5032934;28;20044;-79
2022/08/04 12:34:37;;;;;;;3.20;2.17;;;;;;;;;;5033207;28;20052;-80
2022/08/04 12:37:25;;;;;;;2.10;1.55;;;;;;;;;;5032688;28;20282;-77
2022/08/04 12:39:53;;;;;;;3.78;1.80;;;;;;;;;;5052335;28;20122;-72
2022/08/04 12:42:35;;;;;;;3.05;1.80;;;;;;;;;;5052361;28;20074;-75
2022/08/04 12:45:06;;;;;;;2.55;2.05;;;;;;;;;;5052839;28;20036;-79
2022/08/04 12:47:35;;;;;;;3.75;1.77;;;;;;;;;;5034850;28;20045;-75
2022/08/04 12:50:03;;;;;;;3.67;1.92;;;;;;;;;;5043556;28;20348;-79
2022/08/04 12:52:43;;;;;;;3.80;1.88;;;;;;;;;;5051821;28;20037;-83
2022/08/04 12:55:10;;;;;;;3.78;2.05;;;;;;;;;;5045709;28;20104;-75
2022/08/04 12:57:37;;;;;;;3.38;1.98;;;;;;;;;;5043462;28;20669;-81
2022/08/04 13:00:06;;;;;;;9.75;6.60;;;;;;;;;;5052154;28;20383;-76
2022/08/04 13:02:40;;;;;;;7.68;5.72;;;;;;;;;;5052410;28;20029;-77
2022/08/04 13:05:08;;;;;;;11.10;7.00;;;;;;;;;;5052222;28;20471;-82
2022/08/04 13:07:38;;;;;;;3.85;2.28;;;;;;;;;;5052472;28;20040;-79
2022/08/04 13:10:15;;;;;;;4.15;1.80;;;;;;;;;;5052338;28;20062;-76
2022/08/04 13:12:50;;;;;;;4.22;2.00;;;;;;;;;;5051589;28;20036;-79
2022/08/04 13:15:20;;;;;;;3.08;1.98;;;;;;;;;;5034609;28;20029;-78
2022/08/04 13:18:00;;;;;;;2.40;1.90;;;;;;;;;;5051995;28;20077;-74
2022/08/04 13:20:31;;;;;;;5.35;2.03;;;;;;;;;;5052649;28;20472;-76
2022/08/04 13:23:14;;;;;;;2.55;1.85;;;;;;;;;;5052057;28;20056;-78
2022/08/04 13:25:43;;;;;;;3.90;2.00;;;;;;;;;;5040237;28;20060;-77
2022/08/04 13:28:18;;;;;;;3.92;1.70;;;;;;;;;;5032036;28;20029;-81
2022/08/04 13:30:59;;;;;;;5.53;2.17;;;;;;;;;;5043974;28;20455;-80
2022/08/04 13:33:31;;;;;;;5.05;1.90;;;;;;;;;;5051903;28;20051;-77
2022/08/04 13:36:00;;;;;;;4.53;2.20;;;;;;;;;;5052146;28;20033;-80
2022/08/04 13:38:28;;;;;;;4.30;2.47;;;;;;;;;;5051617;28;20033;-79
2022/08/04 13:41:03;;;;;;;3.55;1.80;;;;;;;;;;5051779;28;20450;-76
2022/08/04 13:43:32;;;;;;;2.00;1.70;;;;;;;;;;5051533;28;20025;-78
2022/08/04 13:46:02;;;;;;;2.78;1.88;;;;;;;;;;5048210;28;20120;-78
2022/08/04 13:48:40;;;;;;;2.53;1.95;;;;;;;;;;5040835;28;20087;-78
2022/08/04 13:51:09;;;;;;;2.60;1.90;;;;;;;;;;5031913;28;20033;-76
2022/08/04 13:53:38;;;;;;;2.65;2.10;;;;;;;;;;5031783;28;20473;-77
2022/08/04 13:56:09;;;;;;;3.45;2.17;;;;;;;;;;5044422;28;20057;-80
2022/08/04 13:58:41;;;;;;;3.60;1.83;;;;;;;;;;5051793;28;20064;-77
2022/08/04 14:01:23;;;;;;;3.40;1.80;;;;;;;;;;5051493;28;20033;-76
2022/08/04 14:04:19;;;;;;;3.60;1.73;;;;;;;;;;5051728;28;20119;-77
2022/08/04 14:06:52;;;;;;;3.35;1.70;;;;;;;;;;5052676;28;20541;-83
2022/08/04 14:09:20;;;;;;;2.88;1.80;;;;;;;;;;5051925;28;20456;-77
2022/08/04 14:11:49;;;;;;;2.95;2.20;;;;;;;;;;5051877;28;20037;-78
2022/08/04 14:14:36;;;;;;;2.65;1.92;;;;;;;;;;5052022;28;20036;-78
2022/08/04 14:17:05;;;;;;;2.97;2.10;;;;;;;;;;5051646;28;20110;-82
2022/08/04 14:19:59;;;;;;;3.40;2.10;;;;;;;;;;5051788;28;20087;-80
2022/08/04 14:22:24;;;;;;;4.18;2.17;;;;;;;;;;5039412;28;20338;-77
2022/08/04 14:25:13;;;;;;;3.50;1.92;;;;;;;;;;5044378;28;20036;-75
2022/08/04 14:27:47;;;;;;;3.97;2.42;;;;;;;;;;5053865;28;20098;-74
2022/08/04 14:30:23;;;;;;;4.47;2.25;;;;;;;;;;5041779;28;20069;-76
2022/08/04 14:32:56;;;;;;;1.80;1.50;;;;;;;;;;5035452;28;20041;-76
2022/08/04 14:35:24;;;;;;;3.20;2.22;;;;;;;;;;5054088;28;20519;-76
2022/08/04 14:37:58;;;;;;;2.95;1.98;;;;;;;;;;5054113;28;20025;-75
2022/08/04 14:40:27;;;;;;;3.47;1.98;;;;;;;;;;5054171;28;20040;-76
2022/08/04 14:42:54;;;;;;;4.10;2.08;;;;;;;;;;5029911;28;20035;-75
2022/08/04 14:45:33;;;;;;;4.85;1.90;;;;;;;;;;5033451;28;20080;-75
2022/08/04 14:48:01;;;;;;;4.65;2.33;;;;;;;;;;5053287;28;20040;-75
2022/08/04 14:50:33;;;;;;;6.35;2.10;;;;;;;;;;5053655;28;20065;-75
2022/08/04 14:53:08;;;;;;;5.68;2.55;;;;;;;;;;5031610;28;20063;-74
2022/08/04 14:55:35;;;;;;;2.60;2.08;;;;;;;;;;5033179;28;20583;-74
2022/08/04 14:58:02;;;;;;;3.90;2.00;;;;;;;;;;5034057;28;20488;-74
2022/08/04 15:00:34;;;;;;;2.72;2.00;;;;;;;;;;5034342;28;20484;-76
2022/08/04 15:03:07;;;;;;;2.65;2.05;;;;;;;;;;5036554;28;20394;-76
2022/08/04 15:05:35;;;;;;;3.47;1.90;;;;;;;;;;5039275;28;20116;-74
2022/08/04 15:08:01;;;;;;;8.07;3.35;;;;;;;;;;5052782;28;20036;-81
2022/08/04 15:10:27;;;;;;;3.38;2.38;;;;;;;;;;5053541;28;20545;-76
2022/08/04 15:12:54;;;;;;;4.68;2.20;;;;;;;;;;5052823;28;20057;-78
2022/08/04 15:15:22;;;;;;;2.60;1.80;;;;;;;;;;5052929;28;20036;-76
2022/08/04 15:17:48;;;;;;;8.05;2.00;;;;;;;;;;5052749;28;20029;-75
2022/08/04 15:20:16;;;;;;;5.22;1.90;;;;;;;;;;5052584;28;20044;-78
2022/08/04 15:22:42;;;;;;;4.60;2.13;;;;;;;;;;5052982;28;20174;-76
2022/08/04 15:25:08;;;;;;;5.75;2.50;;;;;;;;;;5052754;28;20071;-77
2022/08/04 15:27:38;;;;;;;3.25;2.13;;;;;;;;;;5051570;28;20388;-78
2022/08/04 15:30:07;;;;;;;5.72;1.83;;;;;;;;;;5052483;28;20040;-77
2022/08/04 15:32:43;;;;;;;3.45;1.90;;;;;;;;;;5040161;28;20029;-77
2022/08/04 15:35:18;;;;;;;3.17;1.90;;;;;;;;;;5045183;28;20040;-78
2022/08/04 15:38:02;;;;;;;6.60;2.30;;;;;;;;;;5051925;28;20037;-80
2022/08/04 15:40:39;;;;;;;3.72;2.42;;;;;;;;;;5051745;28;20476;-77